sensor_id;sensor_type;location;lat;lon;timestamp;P1;durP1;ratioP1;P2;durP2;ratioP2
21170;SDS011;10743;52.160;20.910;2023-07-02T00:00:12;241.35;;;73.50;;
21170;SDS011;10743;52.160;20.910;2023-07-02T00:02:40;245.20;;;74.20;;
21170;SDS011;10743;52.160;20.910;2023-07-02T00:05:07;243.75;;;74.35;;
21170;SDS011;10743;52.160;20.910;2023-07-02T00:07:34;244.20;;;73.88;;
21170;SDS011;10743;52.160;20.910;2023-07-02T00:10:03;243.60;;;74.07;;
21170;SDS011;10743;52.160;20.910;2023-07-02T00:12:30;243.07;;;73.68;;
21170;SDS011;10743;52.160;20.910;2023-07-02T00:14:58;245.73;;;74.22;;
21170;SDS011;10743;52.160;20.910;2023-07-02T00:17:25;239.73;;;72.43;;
21170;SDS011;10743;52.160;20.910;2023-07-02T00:19:52;243.20;;;73.90;;
21170;SDS011;10743;52.160;20.910;2023-07-02T00:22:19;246.75;;;76.55;;
21170;SDS011;10743;52.160;20.910;2023-07-02T00:24:47;247.88;;;75.28;;
21170;SDS011;10743;52.160;20.910;2023-07-02T00:27:14;248.43;;;75.13;;
21170;SDS011;10743;52.160;20.910;2023-07-02T00:29:41;244.02;;;74.38;;
21170;SDS011;10743;52.160;20.910;2023-07-02T00:32:08;240.48;;;72.93;;
21170;SDS011;10743;52.160;20.910;2023-07-02T00:34:35;247.05;;;74.75;;
21170;SDS011;10743;52.160;20.910;2023-07-02T00:37:02;242.63;;;73.78;;
21170;SDS011;10743;52.160;20.910;2023-07-02T00:39:29;244.07;;;73.60;;
21170;SDS011;10743;52.160;20.910;2023-07-02T00:42:00;249.35;;;74.05;;
21170;SDS011;10743;52.160;20.910;2023-07-02T00:44:31;242.30;;;73.70;;
21170;SDS011;10743;52.160;20.910;2023-07-02T00:46:58;242.45;;;72.95;;
21170;SDS011;10743;52.160;20.910;2023-07-02T00:49:26;241.55;;;73.80;;
21170;SDS011;10743;52.160;20.910;2023-07-02T00:51:54;244.48;;;73.78;;
21170;SDS011;10743;52.160;20.910;2023-07-02T00:54:22;243.65;;;73.65;;
21170;SDS011;10743;52.160;20.910;2023-07-02T00:56:49;247.63;;;73.15;;
21170;SDS011;10743;52.160;20.910;2023-07-02T00:59:16;241.80;;;72.05;;
21170;SDS011;10743;52.160;20.910;2023-07-02T01:01:44;242.35;;;71.57;;
21170;SDS011;10743;52.160;20.910;2023-07-02T01:04:18;242.07;;;73.47;;
21170;SDS011;10743;52.160;20.910;2023-07-02T01:06:46;243.55;;;73.55;;
21170;SDS011;10743;52.160;20.910;2023-07-02T01:09:13;241.27;;;73.03;;
21170;SDS011;10743;52.160;20.910;2023-07-02T01:11:41;242.93;;;73.05;;
21170;SDS011;10743;52.160;20.910;2023-07-02T01:14:18;241.07;;;72.80;;
21170;SDS011;10743;52.160;20.910;2023-07-02T01:16:56;235.82;;;71.07;;
21170;SDS011;10743;52.160;20.910;2023-07-02T01:22:20;239.02;;;71.55;;
21170;SDS011;10743;52.160;20.910;2023-07-02T01:24:51;238.93;;;71.68;;
21170;SDS011;10743;52.160;20.910;2023-07-02T01:27:20;240.45;;;71.18;;
21170;SDS011;10743;52.160;20.910;2023-07-02T01:29:50;239.38;;;71.82;;
21170;SDS011;10743;52.160;20.910;2023-07-02T01:32:19;241.43;;;71.68;;
21170;SDS011;10743;52.160;20.910;2023-07-02T01:34:48;238.32;;;70.82;;
21170;SDS011;10743;52.160;20.910;2023-07-02T01:37:16;243.95;;;71.43;;
21170;SDS011;10743;52.160;20.910;2023-07-02T01:39:43;240.65;;;71.47;;
21170;SDS011;10743;52.160;20.910;2023-07-02T01:42:11;238.55;;;72.18;;
21170;SDS011;10743;52.160;20.910;2023-07-02T01:44:38;240.02;;;71.47;;
21170;SDS011;10743;52.160;20.910;2023-07-02T01:47:05;240.25;;;71.40;;
21170;SDS011;10743;52.160;20.910;2023-07-02T01:49:33;240.27;;;72.15;;
21170;SDS011;10743;52.160;20.910;2023-07-02T01:52:01;243.32;;;73.32;;
21170;SDS011;10743;52.160;20.910;2023-07-02T01:54:28;239.57;;;71.70;;
21170;SDS011;10743;52.160;20.910;2023-07-02T01:56:56;238.13;;;71.40;;
21170;SDS011;10743;52.160;20.910;2023-07-02T01:59:24;249.70;;;72.47;;
21170;SDS011;10743;52.160;20.910;2023-07-02T02:01:51;241.45;;;71.85;;
21170;SDS011;10743;52.160;20.910;2023-07-02T02:04:19;240.20;;;72.05;;
21170;SDS011;10743;52.160;20.910;2023-07-02T02:06:46;238.63;;;70.78;;
21170;SDS011;10743;52.160;20.910;2023-07-02T02:09:13;238.23;;;71.22;;
21170;SDS011;10743;52.160;20.910;2023-07-02T02:11:41;240.23;;;72.03;;
21170;SDS011;10743;52.160;20.910;2023-07-02T02:14:15;240.93;;;72.88;;
21170;SDS011;10743;52.160;20.910;2023-07-02T02:16:43;238.15;;;71.82;;
21170;SDS011;10743;52.160;20.910;2023-07-02T02:19:14;235.60;;;70.55;;
21170;SDS011;10743;52.160;20.910;2023-07-02T02:21:41;240.88;;;72.22;;
21170;SDS011;10743;52.160;20.910;2023-07-02T02:24:09;239.88;;;72.15;;
21170;SDS011;10743;52.160;20.910;2023-07-02T02:26:37;235.70;;;71.75;;
21170;SDS011;10743;52.160;20.910;2023-07-02T02:29:04;234.32;;;70.57;;
21170;SDS011;10743;52.160;20.910;2023-07-02T02:31:31;243.20;;;72.72;;
21170;SDS011;10743;52.160;20.910;2023-07-02T02:34:00;237.23;;;71.55;;
21170;SDS011;10743;52.160;20.910;2023-07-02T02:36:27;239.63;;;71.80;;
21170;SDS011;10743;52.160;20.910;2023-07-02T02:38:55;239.98;;;71.75;;
21170;SDS011;10743;52.160;20.910;2023-07-02T02:41:24;239.63;;;71.28;;
21170;SDS011;10743;52.160;20.910;2023-07-02T02:43:52;239.13;;;72.10;;
21170;SDS011;10743;52.160;20.910;2023-07-02T02:46:21;238.82;;;71.13;;
21170;SDS011;10743;52.160;20.910;2023-07-02T02:48:49;240.90;;;71.65;;
21170;SDS011;10743;52.160;20.910;2023-07-02T02:51:17;235.32;;;71.07;;
21170;SDS011;10743;52.160;20.910;2023-07-02T02:53:45;236.63;;;71.45;;
21170;SDS011;10743;52.160;20.910;2023-07-02T02:56:12;241.57;;;72.00;;
21170;SDS011;10743;52.160;20.910;2023-07-02T02:58:40;246.05;;;81.30;;
21170;SDS011;10743;52.160;20.910;2023-07-02T03:01:07;243.90;;;72.07;;
21170;SDS011;10743;52.160;20.910;2023-07-02T03:03:39;236.63;;;70.72;;
21170;SDS011;10743;52.160;20.910;2023-07-02T03:06:13;238.43;;;71.10;;
21170;SDS011;10743;52.160;20.910;2023-07-02T03:08:43;235.68;;;70.93;;
21170;SDS011;10743;52.160;20.910;2023-07-02T03:11:11;237.07;;;70.47;;
21170;SDS011;10743;52.160;20.910;2023-07-02T03:13:38;238.63;;;71.82;;
21170;SDS011;10743;52.160;20.910;2023-07-02T03:16:05;237.00;;;71.30;;
21170;SDS011;10743;52.160;20.910;2023-07-02T03:18:32;236.13;;;70.75;;
21170;SDS011;10743;52.160;20.910;2023-07-02T03:21:00;235.75;;;69.65;;
21170;SDS011;10743;52.160;20.910;2023-07-02T03:23:27;235.98;;;70.90;;
21170;SDS011;10743;52.160;20.910;2023-07-02T03:25:54;236.70;;;70.60;;
21170;SDS011;10743;52.160;20.910;2023-07-02T03:28:21;242.10;;;71.70;;
21170;SDS011;10743;52.160;20.910;2023-07-02T03:30:48;236.98;;;70.72;;
21170;SDS011;10743;52.160;20.910;2023-07-02T03:33:15;235.77;;;70.47;;
21170;SDS011;10743;52.160;20.910;2023-07-02T03:35:42;244.40;;;79.03;;
21170;SDS011;10743;52.160;20.910;2023-07-02T03:38:10;296.58;;;130.52;;
21170;SDS011;10743;52.160;20.910;2023-07-02T03:40:37;262.17;;;102.05;;
21170;SDS011;10743;52.160;20.910;2023-07-02T03:43:05;116.32;;;64.38;;
21170;SDS011;10743;52.160;20.910;2023-07-02T03:45:32;212.15;;;98.47;;
21170;SDS011;10743;52.160;20.910;2023-07-02T03:47:59;190.63;;;75.57;;
21170;SDS011;10743;52.160;20.910;2023-07-02T03:50:27;212.23;;;70.75;;
21170;SDS011;10743;52.160;20.910;2023-07-02T03:52:54;176.60;;;74.57;;
21170;SDS011;10743;52.160;20.910;2023-07-02T03:55:21;179.00;;;85.20;;
21170;SDS011;10743;52.160;20.910;2023-07-02T03:57:48;178.45;;;79.25;;
21170;SDS011;10743;52.160;20.910;2023-07-02T04:00:15;186.32;;;78.20;;
21170;SDS011;10743;52.160;20.910;2023-07-02T04:02:42;194.30;;;74.72;;
21170;SDS011;10743;52.160;20.910;2023-07-02T04:05:09;169.63;;;82.30;;
21170;SDS011;10743;52.160;20.910;2023-07-02T04:07:37;242.63;;;70.55;;
21170;SDS011;10743;52.160;20.910;2023-07-02T04:10:04;238.77;;;70.75;;
21170;SDS011;10743;52.160;20.910;2023-07-02T04:12:32;185.27;;;105.60;;
21170;SDS011;10743;52.160;20.910;2023-07-02T04:14:59;161.85;;;66.55;;
21170;SDS011;10743;52.160;20.910;2023-07-02T04:17:26;160.52;;;77.10;;
21170;SDS011;10743;52.160;20.910;2023-07-02T04:19:54;168.88;;;74.97;;
21170;SDS011;10743;52.160;20.910;2023-07-02T04:22:21;193.55;;;170.68;;
21170;SDS011;10743;52.160;20.910;2023-07-02T04:24:48;152.30;;;71.25;;
21170;SDS011;10743;52.160;20.910;2023-07-02T04:27:17;180.55;;;124.28;;
21170;SDS011;10743;52.160;20.910;2023-07-02T04:30:05;211.27;;;83.10;;
21170;SDS011;10743;52.160;20.910;2023-07-02T04:32:34;155.95;;;74.43;;
21170;SDS011;10743;52.160;20.910;2023-07-02T04:35:08;168.20;;;70.68;;
21170;SDS011;10743;52.160;20.910;2023-07-02T04:37:35;166.90;;;77.32;;
21170;SDS011;10743;52.160;20.910;2023-07-02T04:40:02;209.18;;;71.18;;
21170;SDS011;10743;52.160;20.910;2023-07-02T04:42:33;180.77;;;74.38;;
21170;SDS011;10743;52.160;20.910;2023-07-02T04:45:01;174.02;;;68.22;;
21170;SDS011;10743;52.160;20.910;2023-07-02T04:47:28;175.00;;;72.22;;
21170;SDS011;10743;52.160;20.910;2023-07-02T04:49:56;185.50;;;71.43;;
21170;SDS011;10743;52.160;20.910;2023-07-02T04:52:24;197.75;;;81.85;;
21170;SDS011;10743;52.160;20.910;2023-07-02T04:54:51;158.00;;;89.85;;
21170;SDS011;10743;52.160;20.910;2023-07-02T04:57:18;180.27;;;125.22;;
21170;SDS011;10743;52.160;20.910;2023-07-02T04:59:45;173.02;;;117.90;;
21170;SDS011;10743;52.160;20.910;2023-07-02T05:02:12;179.73;;;100.25;;
21170;SDS011;10743;52.160;20.910;2023-07-02T05:04:39;231.80;;;203.77;;
21170;SDS011;10743;52.160;20.910;2023-07-02T05:07:06;215.00;;;166.30;;
21170;SDS011;10743;52.160;20.910;2023-07-02T05:09:33;199.05;;;136.50;;
21170;SDS011;10743;52.160;20.910;2023-07-02T05:12:00;203.05;;;137.07;;
21170;SDS011;10743;52.160;20.910;2023-07-02T05:14:27;225.23;;;177.70;;
21170;SDS011;10743;52.160;20.910;2023-07-02T05:16:54;282.35;;;253.32;;
21170;SDS011;10743;52.160;20.910;2023-07-02T05:19:21;226.38;;;193.05;;
21170;SDS011;10743;52.160;20.910;2023-07-02T05:21:48;191.25;;;127.78;;
21170;SDS011;10743;52.160;20.910;2023-07-02T05:24:15;50.90;;;37.13;;
21170;SDS011;10743;52.160;20.910;2023-07-02T05:26:42;142.88;;;66.55;;
21170;SDS011;10743;52.160;20.910;2023-07-02T05:29:09;221.65;;;67.22;;
21170;SDS011;10743;52.160;20.910;2023-07-02T05:31:37;180.45;;;67.70;;
21170;SDS011;10743;52.160;20.910;2023-07-02T05:34:04;124.32;;;61.53;;
21170;SDS011;10743;52.160;20.910;2023-07-02T05:36:31;133.13;;;67.22;;
21170;SDS011;10743;52.160;20.910;2023-07-02T05:38:58;125.45;;;68.40;;
21170;SDS011;10743;52.160;20.910;2023-07-02T05:41:25;152.88;;;71.07;;
21170;SDS011;10743;52.160;20.910;2023-07-02T05:43:57;130.77;;;59.00;;
21170;SDS011;10743;52.160;20.910;2023-07-02T05:46:24;160.23;;;139.10;;
21170;SDS011;10743;52.160;20.910;2023-07-02T05:48:52;178.00;;;110.75;;
21170;SDS011;10743;52.160;20.910;2023-07-02T05:51:25;173.93;;;100.70;;
21170;SDS011;10743;52.160;20.910;2023-07-02T05:53:52;164.90;;;147.93;;
21170;SDS011;10743;52.160;20.910;2023-07-02T05:56:19;151.75;;;68.97;;
21170;SDS011;10743;52.160;20.910;2023-07-02T05:58:47;178.18;;;70.18;;
21170;SDS011;10743;52.160;20.910;2023-07-02T06:01:16;181.95;;;83.55;;
21170;SDS011;10743;52.160;20.910;2023-07-02T06:03:43;181.35;;;71.82;;
21170;SDS011;10743;52.160;20.910;2023-07-02T06:06:12;166.60;;;99.00;;
21170;SDS011;10743;52.160;20.910;2023-07-02T06:08:39;167.25;;;105.30;;
21170;SDS011;10743;52.160;20.910;2023-07-02T06:11:06;178.02;;;122.07;;
21170;SDS011;10743;52.160;20.910;2023-07-02T06:13:33;149.13;;;100.03;;
21170;SDS011;10743;52.160;20.910;2023-07-02T06:16:00;184.30;;;112.35;;
21170;SDS011;10743;52.160;20.910;2023-07-02T06:18:28;176.10;;;117.43;;
21170;SDS011;10743;52.160;20.910;2023-07-02T06:20:55;169.82;;;138.10;;
21170;SDS011;10743;52.160;20.910;2023-07-02T06:23:22;167.57;;;136.27;;
21170;SDS011;10743;52.160;20.910;2023-07-02T06:25:49;167.73;;;86.55;;
21170;SDS011;10743;52.160;20.910;2023-07-02T06:28:19;134.40;;;64.75;;
21170;SDS011;10743;52.160;20.910;2023-07-02T06:30:46;207.00;;;69.00;;
21170;SDS011;10743;52.160;20.910;2023-07-02T06:33:14;155.50;;;75.10;;
21170;SDS011;10743;52.160;20.910;2023-07-02T06:35:41;154.13;;;74.65;;
21170;SDS011;10743;52.160;20.910;2023-07-02T06:38:08;157.77;;;66.57;;
21170;SDS011;10743;52.160;20.910;2023-07-02T06:40:35;145.70;;;89.22;;
21170;SDS011;10743;52.160;20.910;2023-07-02T06:43:02;134.98;;;71.47;;
21170;SDS011;10743;52.160;20.910;2023-07-02T06:45:29;172.55;;;102.75;;
21170;SDS011;10743;52.160;20.910;2023-07-02T06:47:56;171.60;;;140.70;;
21170;SDS011;10743;52.160;20.910;2023-07-02T06:50:23;169.63;;;77.78;;
21170;SDS011;10743;52.160;20.910;2023-07-02T06:52:50;216.63;;;68.63;;
21170;SDS011;10743;52.160;20.910;2023-07-02T06:55:17;235.95;;;68.18;;
21170;SDS011;10743;52.160;20.910;2023-07-02T06:57:45;240.80;;;68.68;;
21170;SDS011;10743;52.160;20.910;2023-07-02T07:00:12;231.77;;;67.18;;
21170;SDS011;10743;52.160;20.910;2023-07-02T07:02:40;236.15;;;67.47;;
21170;SDS011;10743;52.160;20.910;2023-07-02T07:05:08;238.48;;;68.38;;
21170;SDS011;10743;52.160;20.910;2023-07-02T07:07:36;241.45;;;68.30;;
21170;SDS011;10743;52.160;20.910;2023-07-02T07:10:03;238.05;;;68.22;;
21170;SDS011;10743;52.160;20.910;2023-07-02T07:12:31;244.32;;;69.15;;
21170;SDS011;10743;52.160;20.910;2023-07-02T07:14:58;238.32;;;68.40;;
21170;SDS011;10743;52.160;20.910;2023-07-02T07:17:26;238.25;;;67.75;;
21170;SDS011;10743;52.160;20.910;2023-07-02T07:19:53;229.45;;;66.85;;
21170;SDS011;10743;52.160;20.910;2023-07-02T07:22:20;233.13;;;67.53;;
21170;SDS011;10743;52.160;20.910;2023-07-02T07:24:47;251.18;;;94.25;;
21170;SDS011;10743;52.160;20.910;2023-07-02T07:27:14;233.50;;;67.60;;
21170;SDS011;10743;52.160;20.910;2023-07-02T07:29:41;232.32;;;68.18;;
21170;SDS011;10743;52.160;20.910;2023-07-02T07:32:08;276.33;;;127.22;;
21170;SDS011;10743;52.160;20.910;2023-07-02T07:34:35;245.15;;;84.30;;
21170;SDS011;10743;52.160;20.910;2023-07-02T07:37:02;241.30;;;72.93;;
21170;SDS011;10743;52.160;20.910;2023-07-02T07:39:30;237.25;;;71.53;;
21170;SDS011;10743;52.160;20.910;2023-07-02T07:41:57;231.63;;;65.88;;
21170;SDS011;10743;52.160;20.910;2023-07-02T07:44:24;231.02;;;65.88;;
21170;SDS011;10743;52.160;20.910;2023-07-02T07:46:55;233.88;;;67.30;;
21170;SDS011;10743;52.160;20.910;2023-07-02T07:49:22;237.50;;;71.75;;
21170;SDS011;10743;52.160;20.910;2023-07-02T07:51:50;235.35;;;70.88;;
21170;SDS011;10743;52.160;20.910;2023-07-02T07:54:17;234.15;;;69.95;;
21170;SDS011;10743;52.160;20.910;2023-07-02T07:56:44;240.38;;;71.50;;
21170;SDS011;10743;52.160;20.910;2023-07-02T07:59:11;237.95;;;73.35;;
21170;SDS011;10743;52.160;20.910;2023-07-02T08:01:41;232.98;;;66.85;;
21170;SDS011;10743;52.160;20.910;2023-07-02T08:04:08;233.05;;;66.57;;
21170;SDS011;10743;52.160;20.910;2023-07-02T08:06:35;235.80;;;66.47;;
21170;SDS011;10743;52.160;20.910;2023-07-02T08:09:02;243.25;;;66.85;;
21170;SDS011;10743;52.160;20.910;2023-07-02T08:11:30;230.43;;;65.43;;
21170;SDS011;10743;52.160;20.910;2023-07-02T08:13:57;235.07;;;66.00;;
21170;SDS011;10743;52.160;20.910;2023-07-02T08:16:24;233.70;;;66.13;;
21170;SDS011;10743;52.160;20.910;2023-07-02T08:18:52;235.27;;;66.47;;
21170;SDS011;10743;52.160;20.910;2023-07-02T08:21:19;235.02;;;66.15;;
21170;SDS011;10743;52.160;20.910;2023-07-02T08:23:46;235.73;;;65.72;;
21170;SDS011;10743;52.160;20.910;2023-07-02T08:26:13;228.80;;;65.30;;
21170;SDS011;10743;52.160;20.910;2023-07-02T08:28:40;236.55;;;66.32;;
21170;SDS011;10743;52.160;20.910;2023-07-02T08:31:07;228.52;;;65.03;;
21170;SDS011;10743;52.160;20.910;2023-07-02T08:33:35;227.13;;;65.00;;
21170;SDS011;10743;52.160;20.910;2023-07-02T08:36:02;258.20;;;93.05;;
21170;SDS011;10743;52.160;20.910;2023-07-02T08:38:29;224.07;;;64.55;;
21170;SDS011;10743;52.160;20.910;2023-07-02T08:40:56;225.18;;;65.15;;
21170;SDS011;10743;52.160;20.910;2023-07-02T08:43:23;226.30;;;65.05;;
21170;SDS011;10743;52.160;20.910;2023-07-02T08:45:53;228.27;;;64.75;;
21170;SDS011;10743;52.160;20.910;2023-07-02T08:48:21;225.13;;;64.53;;
21170;SDS011;10743;52.160;20.910;2023-07-02T08:50:50;222.73;;;64.28;;
21170;SDS011;10743;52.160;20.910;2023-07-02T08:53:18;221.05;;;63.53;;
21170;SDS011;10743;52.160;20.910;2023-07-02T08:55:45;227.60;;;64.55;;
21170;SDS011;10743;52.160;20.910;2023-07-02T08:58:14;233.93;;;75.68;;
21170;SDS011;10743;52.160;20.910;2023-07-02T09:00:41;236.00;;;80.30;;
21170;SDS011;10743;52.160;20.910;2023-07-02T09:03:36;230.45;;;66.10;;
21170;SDS011;10743;52.160;20.910;2023-07-02T09:06:04;217.85;;;64.38;;
21170;SDS011;10743;52.160;20.910;2023-07-02T09:08:37;217.00;;;65.00;;
21170;SDS011;10743;52.160;20.910;2023-07-02T09:13:51;221.45;;;68.47;;
21170;SDS011;10743;52.160;20.910;2023-07-02T09:16:26;218.00;;;65.13;;
21170;SDS011;10743;52.160;20.910;2023-07-02T09:18:59;219.55;;;64.38;;
21170;SDS011;10743;52.160;20.910;2023-07-02T09:21:42;220.63;;;64.93;;
21170;SDS011;10743;52.160;20.910;2023-07-02T09:24:15;225.68;;;66.95;;
21170;SDS011;10743;52.160;20.910;2023-07-02T09:26:44;227.95;;;67.28;;
21170;SDS011;10743;52.160;20.910;2023-07-02T09:29:13;223.55;;;65.22;;
21170;SDS011;10743;52.160;20.910;2023-07-02T09:31:46;221.63;;;65.65;;
21170;SDS011;10743;52.160;20.910;2023-07-02T09:34:35;41.25;;;32.75;;
21170;SDS011;10743;52.160;20.910;2023-07-02T09:37:04;258.67;;;94.85;;
21170;SDS011;10743;52.160;20.910;2023-07-02T09:39:35;131.50;;;61.92;;
21170;SDS011;10743;52.160;20.910;2023-07-02T09:42:06;98.90;;;53.13;;
21170;SDS011;10743;52.160;20.910;2023-07-02T09:44:36;93.03;;;54.80;;
21170;SDS011;10743;52.160;20.910;2023-07-02T09:47:05;151.25;;;77.22;;
21170;SDS011;10743;52.160;20.910;2023-07-02T09:49:38;123.18;;;72.43;;
21170;SDS011;10743;52.160;20.910;2023-07-02T09:52:09;230.88;;;65.15;;
21170;SDS011;10743;52.160;20.910;2023-07-02T09:54:37;235.40;;;65.93;;
21170;SDS011;10743;52.160;20.910;2023-07-02T09:57:05;225.23;;;68.05;;
21170;SDS011;10743;52.160;20.910;2023-07-02T09:59:34;84.38;;;53.38;;
21170;SDS011;10743;52.160;20.910;2023-07-02T10:02:01;98.93;;;57.90;;
21170;SDS011;10743;52.160;20.910;2023-07-02T10:04:39;72.93;;;47.53;;
21170;SDS011;10743;52.160;20.910;2023-07-02T10:07:26;80.43;;;52.90;;
21170;SDS011;10743;52.160;20.910;2023-07-02T10:09:58;246.27;;;76.40;;
21170;SDS011;10743;52.160;20.910;2023-07-02T10:12:26;234.82;;;66.38;;
21170;SDS011;10743;52.160;20.910;2023-07-02T10:14:55;237.55;;;67.45;;
21170;SDS011;10743;52.160;20.910;2023-07-02T10:19:54;255.13;;;90.05;;
21170;SDS011;10743;52.160;20.910;2023-07-02T10:22:23;236.65;;;76.63;;
21170;SDS011;10743;52.160;20.910;2023-07-02T10:24:59;233.18;;;74.10;;
21170;SDS011;10743;52.160;20.910;2023-07-02T10:27:36;251.05;;;91.18;;
21170;SDS011;10743;52.160;20.910;2023-07-02T10:30:09;220.65;;;70.55;;
21170;SDS011;10743;52.160;20.910;2023-07-02T10:32:37;228.30;;;66.47;;
21170;SDS011;10743;52.160;20.910;2023-07-02T10:35:14;219.75;;;65.47;;
21170;SDS011;10743;52.160;20.910;2023-07-02T10:37:43;227.52;;;66.97;;
21170;SDS011;10743;52.160;20.910;2023-07-02T10:40:11;223.27;;;66.60;;
21170;SDS011;10743;52.160;20.910;2023-07-02T10:42:45;219.52;;;70.05;;
21170;SDS011;10743;52.160;20.910;2023-07-02T10:45:18;209.98;;;67.28;;
21170;SDS011;10743;52.160;20.910;2023-07-02T10:47:46;206.60;;;67.05;;
21170;SDS011;10743;52.160;20.910;2023-07-02T10:50:20;208.52;;;66.68;;
21170;SDS011;10743;52.160;20.910;2023-07-02T10:52:49;208.18;;;67.65;;
21170;SDS011;10743;52.160;20.910;2023-07-02T10:55:20;198.98;;;67.03;;
21170;SDS011;10743;52.160;20.910;2023-07-02T10:57:50;199.20;;;66.40;;
21170;SDS011;10743;52.160;20.910;2023-07-02T11:00:30;201.65;;;67.00;;
21170;SDS011;10743;52.160;20.910;2023-07-02T11:02:58;194.93;;;65.55;;
21170;SDS011;10743;52.160;20.910;2023-07-02T11:05:26;199.32;;;66.65;;
21170;SDS011;10743;52.160;20.910;2023-07-02T11:07:55;203.90;;;69.68;;
21170;SDS011;10743;52.160;20.910;2023-07-02T11:10:35;200.23;;;66.88;;
21170;SDS011;10743;52.160;20.910;2023-07-02T11:13:15;189.77;;;66.55;;
21170;SDS011;10743;52.160;20.910;2023-07-02T11:15:45;196.93;;;61.40;;
21170;SDS011;10743;52.160;20.910;2023-07-02T11:18:15;212.40;;;66.47;;
21170;SDS011;10743;52.160;20.910;2023-07-02T11:20:45;206.75;;;72.80;;
21170;SDS011;10743;52.160;20.910;2023-07-02T11:25:57;198.32;;;65.35;;
21170;SDS011;10743;52.160;20.910;2023-07-02T11:28:26;193.70;;;65.43;;
21170;SDS011;10743;52.160;20.910;2023-07-02T11:30:56;207.32;;;77.85;;
21170;SDS011;10743;52.160;20.910;2023-07-02T11:33:37;196.00;;;64.93;;
21170;SDS011;10743;52.160;20.910;2023-07-02T11:36:06;248.07;;;123.45;;
21170;SDS011;10743;52.160;20.910;2023-07-02T11:38:46;197.73;;;66.38;;
21170;SDS011;10743;52.160;20.910;2023-07-02T11:41:13;200.30;;;65.22;;
21170;SDS011;10743;52.160;20.910;2023-07-02T11:43:41;198.55;;;65.50;;
21170;SDS011;10743;52.160;20.910;2023-07-02T11:46:08;200.52;;;65.00;;
21170;SDS011;10743;52.160;20.910;2023-07-02T11:48:35;203.27;;;66.53;;
21170;SDS011;10743;52.160;20.910;2023-07-02T11:51:02;199.05;;;65.25;;
21170;SDS011;10743;52.160;20.910;2023-07-02T11:53:29;199.68;;;65.97;;
21170;SDS011;10743;52.160;20.910;2023-07-02T11:55:56;236.95;;;79.47;;
21170;SDS011;10743;52.160;20.910;2023-07-02T11:58:23;210.68;;;69.55;;
21170;SDS011;10743;52.160;20.910;2023-07-02T12:00:50;181.65;;;63.40;;
21170;SDS011;10743;52.160;20.910;2023-07-02T12:03:17;186.20;;;65.40;;
21170;SDS011;10743;52.160;20.910;2023-07-02T12:05:44;181.43;;;64.90;;
21170;SDS011;10743;52.160;20.910;2023-07-02T12:08:13;187.73;;;66.38;;
21170;SDS011;10743;52.160;20.910;2023-07-02T12:10:40;190.70;;;66.18;;
21170;SDS011;10743;52.160;20.910;2023-07-02T12:13:08;180.90;;;64.53;;
21170;SDS011;10743;52.160;20.910;2023-07-02T12:15:35;175.55;;;64.32;;
21170;SDS011;10743;52.160;20.910;2023-07-02T12:18:02;176.73;;;65.35;;
21170;SDS011;10743;52.160;20.910;2023-07-02T12:20:29;174.40;;;64.30;;
21170;SDS011;10743;52.160;20.910;2023-07-02T12:22:56;176.88;;;66.72;;
21170;SDS011;10743;52.160;20.910;2023-07-02T12:25:26;173.48;;;66.38;;
21170;SDS011;10743;52.160;20.910;2023-07-02T12:27:54;175.63;;;66.38;;
21170;SDS011;10743;52.160;20.910;2023-07-02T12:30:21;159.45;;;64.22;;
21170;SDS011;10743;52.160;20.910;2023-07-02T12:32:48;15.00;;;4.35;;
21170;SDS011;10743;52.160;20.910;2023-07-02T12:35:15;240.50;;;100.22;;
21170;SDS011;10743;52.160;20.910;2023-07-02T12:37:43;203.40;;;68.00;;
21170;SDS011;10743;52.160;20.910;2023-07-02T12:40:15;195.00;;;66.35;;
21170;SDS011;10743;52.160;20.910;2023-07-02T12:42:43;186.20;;;66.32;;
21170;SDS011;10743;52.160;20.910;2023-07-02T12:45:11;180.80;;;64.78;;
21170;SDS011;10743;52.160;20.910;2023-07-02T12:47:39;177.40;;;64.95;;
21170;SDS011;10743;52.160;20.910;2023-07-02T12:50:09;182.40;;;67.10;;
21170;SDS011;10743;52.160;20.910;2023-07-02T12:52:37;174.32;;;67.30;;
21170;SDS011;10743;52.160;20.910;2023-07-02T12:55:04;176.65;;;65.32;;
21170;SDS011;10743;52.160;20.910;2023-07-02T12:57:31;176.88;;;64.53;;
21170;SDS011;10743;52.160;20.910;2023-07-02T12:59:58;174.43;;;64.88;;
21170;SDS011;10743;52.160;20.910;2023-07-02T13:02:25;171.70;;;64.32;;
21170;SDS011;10743;52.160;20.910;2023-07-02T13:04:53;177.02;;;65.47;;
21170;SDS011;10743;52.160;20.910;2023-07-02T13:07:20;173.07;;;64.60;;
21170;SDS011;10743;52.160;20.910;2023-07-02T13:09:48;168.50;;;64.93;;
21170;SDS011;10743;52.160;20.910;2023-07-02T13:12:15;173.38;;;65.35;;
21170;SDS011;10743;52.160;20.910;2023-07-02T13:14:42;172.75;;;66.63;;
21170;SDS011;10743;52.160;20.910;2023-07-02T13:17:09;167.48;;;64.88;;
21170;SDS011;10743;52.160;20.910;2023-07-02T13:19:36;160.27;;;63.22;;
21170;SDS011;10743;52.160;20.910;2023-07-02T13:22:03;162.85;;;64.43;;
21170;SDS011;10743;52.160;20.910;2023-07-02T13:24:34;167.40;;;64.32;;
21170;SDS011;10743;52.160;20.910;2023-07-02T13:27:04;165.25;;;64.45;;
21170;SDS011;10743;52.160;20.910;2023-07-02T13:29:40;162.13;;;63.10;;
21170;SDS011;10743;52.160;20.910;2023-07-02T13:32:07;172.35;;;64.32;;
21170;SDS011;10743;52.160;20.910;2023-07-02T13:34:34;168.43;;;63.60;;
21170;SDS011;10743;52.160;20.910;2023-07-02T13:37:01;187.95;;;66.72;;
21170;SDS011;10743;52.160;20.910;2023-07-02T13:39:29;236.25;;;74.97;;
21170;SDS011;10743;52.160;20.910;2023-07-02T13:41:57;240.30;;;125.38;;
21170;SDS011;10743;52.160;20.910;2023-07-02T13:44:24;213.95;;;101.00;;
21170;SDS011;10743;52.160;20.910;2023-07-02T13:46:51;189.38;;;76.13;;
21170;SDS011;10743;52.160;20.910;2023-07-02T13:49:19;208.75;;;87.78;;
21170;SDS011;10743;52.160;20.910;2023-07-02T13:51:48;189.07;;;69.43;;
21170;SDS011;10743;52.160;20.910;2023-07-02T13:54:16;188.73;;;68.13;;
21170;SDS011;10743;52.160;20.910;2023-07-02T13:56:45;196.82;;;76.88;;
21170;SDS011;10743;52.160;20.910;2023-07-02T13:59:16;184.35;;;65.20;;
21170;SDS011;10743;52.160;20.910;2023-07-02T14:01:45;187.48;;;64.68;;
21170;SDS011;10743;52.160;20.910;2023-07-02T14:04:13;189.25;;;64.47;;
21170;SDS011;10743;52.160;20.910;2023-07-02T14:06:42;181.85;;;63.22;;
21170;SDS011;10743;52.160;20.910;2023-07-02T14:09:09;201.48;;;66.28;;
21170;SDS011;10743;52.160;20.910;2023-07-02T14:11:39;191.48;;;65.72;;
21170;SDS011;10743;52.160;20.910;2023-07-02T14:14:07;197.43;;;67.32;;